createdAt,value
2023-02-05T00:00:55.030Z,4.17
2023-02-05T00:01:54.998Z,4.14
2023-02-05T00:02:54.982Z,4.16
2023-02-05T00:03:54.987Z,4.13
2023-02-05T00:04:54.948Z,4.13
2023-02-05T00:05:54.979Z,4.04
2023-02-05T00:06:54.972Z,4.02
2023-02-05T00:07:54.934Z,3.96
2023-02-05T00:08:54.913Z,3.96
2023-02-05T00:09:54.887Z,4.05
2023-02-05T00:10:54.947Z,3.99
2023-02-05T00:11:54.892Z,3.95
2023-02-05T00:12:54.874Z,4.08
2023-02-05T00:13:54.846Z,4.06
2023-02-05T00:14:54.843Z,4.06
2023-02-05T00:15:54.856Z,4.05
2023-02-05T00:16:54.961Z,3.98
2023-02-05T00:17:54.832Z,3.92
2023-02-05T00:18:54.791Z,4.08
2023-02-05T00:19:54.780Z,4.06
2023-02-05T00:20:54.805Z,4.08
2023-02-05T00:21:54.761Z,4.04
2023-02-05T00:22:54.755Z,4.01
2023-02-05T00:23:54.752Z,4.05
2023-02-05T00:24:54.734Z,4.04
2023-02-05T00:25:54.727Z,4.08
2023-02-05T00:26:54.783Z,4.04
2023-02-05T00:27:54.707Z,3.98
2023-02-05T00:28:54.694Z,4.04
2023-02-05T00:29:54.717Z,4.05
2023-02-05T00:30:54.768Z,3.98
2023-02-05T00:31:54.673Z,4.04
2023-02-05T00:32:54.649Z,4.01
2023-02-05T00:33:54.638Z,4.01
2023-02-05T00:34:54.625Z,3.95
2023-02-05T00:35:54.604Z,3.98
2023-02-05T00:36:54.604Z,3.98
2023-02-05T00:37:54.644Z,4.06
2023-02-05T00:38:54.598Z,4.04
2023-02-05T00:39:54.589Z,3.86
2023-02-05T00:40:54.660Z,3.88
2023-02-05T00:41:54.537Z,3.88
2023-02-05T00:42:54.553Z,3.95
2023-02-05T00:43:54.524Z,3.98
2023-02-05T00:44:54.527Z,3.94
2023-02-05T00:45:54.555Z,3.91
2023-02-05T00:46:54.513Z,3.96
2023-02-05T00:47:54.511Z,3.95
2023-02-05T00:48:54.506Z,3.95
2023-02-05T00:49:54.467Z,3.94
2023-02-05T00:50:54.457Z,3.92
2023-02-05T00:51:54.447Z,3.84
2023-02-05T00:52:54.467Z,3.87
2023-02-05T00:53:54.416Z,3.91
2023-02-05T00:54:54.448Z,3.88
2023-02-05T00:55:54.396Z,3.95
2023-02-05T00:56:54.404Z,3.99
2023-02-05T00:57:54.394Z,3.88
2023-02-05T00:58:54.450Z,4.01
2023-02-05T00:59:54.345Z,3.95
2023-02-05T01:00:54.333Z,3.86
2023-02-05T01:01:54.326Z,3.91
2023-02-05T01:02:54.321Z,3.91
2023-02-05T01:03:54.336Z,3.87
2023-02-05T01:04:54.316Z,3.96
2023-02-05T01:05:54.288Z,3.99
2023-02-05T01:06:54.314Z,3.91
2023-02-05T01:07:54.260Z,3.83
2023-02-05T01:08:54.272Z,3.95
2023-02-05T01:09:54.235Z,3.92
2023-02-05T01:10:54.238Z,3.95
2023-02-05T01:11:54.233Z,3.96
2023-02-05T01:12:54.208Z,3.94
2023-02-05T01:13:54.246Z,3.88
2023-02-05T01:14:54.210Z,3.91
2023-02-05T01:15:54.203Z,3.84
2023-02-05T01:16:54.203Z,3.88
2023-02-05T01:17:54.211Z,3.95
2023-02-05T01:18:54.152Z,3.94
2023-02-05T01:19:54.169Z,3.92
2023-02-05T01:20:54.136Z,3.88
2023-02-05T01:21:54.118Z,3.95
2023-02-05T01:22:54.108Z,3.98
2023-02-05T01:23:54.118Z,3.95
2023-02-05T01:24:54.085Z,3.92
2023-02-05T01:25:54.070Z,3.96
2023-02-05T01:26:54.054Z,3.87
2023-02-05T01:27:54.073Z,3.87
2023-02-05T01:28:54.032Z,3.95
2023-02-05T01:29:54.035Z,3.86
2023-02-05T01:30:54.125Z,3.92
2023-02-05T01:31:54.124Z,3.88
2023-02-05T01:32:53.990Z,3.95
2023-02-05T01:33:53.995Z,3.88
2023-02-05T01:34:54.007Z,3.95
2023-02-05T01:35:53.965Z,3.92
2023-02-05T01:36:53.971Z,3.87
2023-02-05T01:37:54.042Z,3.96
2023-02-05T01:38:53.924Z,3.87
2023-02-05T01:39:53.936Z,3.96
2023-02-05T01:40:53.948Z,3.88
2023-02-05T01:41:53.926Z,3.94
2023-02-05T01:42:53.879Z,3.91
2023-02-05T01:43:53.875Z,3.84
2023-02-05T01:44:53.858Z,3.83
2023-02-05T01:45:53.843Z,3.83
2023-02-05T01:46:53.849Z,3.81
2023-02-05T01:47:53.849Z,3.87
2023-02-05T01:48:53.815Z,3.83
2023-02-05T01:49:53.810Z,3.83
2023-02-05T01:50:53.812Z,3.81
2023-02-05T01:51:53.776Z,3.77
2023-02-05T01:52:53.780Z,3.78
2023-02-05T01:53:53.773Z,3.74
2023-02-05T01:54:53.742Z,3.73
2023-02-05T01:55:53.742Z,3.70
2023-02-05T01:56:53.732Z,3.76
2023-02-05T01:57:53.719Z,3.69
2023-02-05T01:58:53.702Z,3.68
2023-02-05T01:59:53.690Z,3.66
2023-02-05T02:00:53.709Z,3.63
2023-02-05T02:01:53.729Z,3.60
2023-02-05T02:02:53.658Z,3.53
2023-02-05T02:03:53.656Z,3.44
2023-02-05T02:04:53.662Z,3.51
2023-02-05T02:05:53.631Z,3.45
2023-02-05T02:06:53.636Z,3.45
2023-02-05T02:07:53.647Z,3.45
2023-02-05T02:08:53.613Z,3.47
2023-02-05T02:09:53.615Z,3.48
2023-02-05T02:10:53.581Z,3.44
2023-02-05T02:11:53.562Z,3.55
2023-02-05T02:12:53.556Z,3.55
2023-02-05T02:13:53.544Z,3.55
2023-02-05T02:14:53.542Z,3.62
2023-02-05T02:15:53.579Z,3.60
2023-02-05T02:16:53.514Z,3.59
2023-02-05T02:17:53.515Z,3.41
2023-02-05T02:18:53.547Z,3.37
2023-02-05T02:19:53.474Z,3.23
2023-02-05T02:20:53.473Z,3.16
2023-02-05T02:21:53.547Z,3.10
2023-02-05T02:22:53.452Z,3.05
2023-02-05T02:23:54.011Z,3.01
2023-02-05T02:24:53.446Z,3.07
2023-02-05T02:25:53.408Z,3.07
2023-02-05T02:26:53.435Z,3.03
2023-02-05T02:27:53.470Z,3.00
2023-02-05T02:28:53.381Z,2.98
2023-02-05T02:29:53.367Z,2.95
2023-02-05T02:30:54.501Z,2.83
2023-02-05T02:31:53.357Z,2.75
2023-02-05T02:32:53.368Z,2.77
2023-02-05T02:33:53.325Z,2.75
2023-02-05T02:34:53.324Z,2.75
2023-02-05T02:35:53.306Z,2.72
2023-02-05T02:36:53.308Z,2.79
2023-02-05T02:37:53.296Z,2.72
2023-02-05T02:38:53.281Z,2.74
2023-02-05T02:39:53.274Z,2.72
2023-02-05T02:40:53.278Z,2.80
2023-02-05T02:41:53.252Z,2.79
2023-02-05T02:42:53.243Z,2.74
2023-02-05T02:43:53.219Z,2.65
2023-02-05T02:44:53.209Z,2.65
2023-02-05T02:45:53.211Z,2.53
2023-02-05T02:46:53.246Z,2.39
2023-02-05T02:47:53.204Z,2.38
2023-02-05T02:48:53.192Z,2.39
2023-02-05T02:49:53.164Z,2.50
2023-02-05T02:50:53.159Z,2.36
2023-02-05T02:51:53.152Z,2.53
2023-02-05T02:52:53.152Z,2.65
2023-02-05T02:53:53.118Z,2.57
2023-02-05T02:54:53.176Z,2.53
2023-02-05T02:55:53.126Z,2.56
2023-02-05T02:56:53.110Z,2.51
2023-02-05T02:57:53.096Z,2.53
2023-02-05T02:58:53.071Z,2.60
2023-02-05T02:59:53.054Z,2.57
2023-02-05T03:00:53.138Z,2.53
2023-02-05T03:01:54.014Z,2.65
2023-02-05T03:02:53.068Z,2.67
2023-02-05T03:03:53.079Z,2.60
2023-02-05T03:04:53.002Z,2.53
2023-02-05T03:05:53.016Z,2.46
2023-02-05T03:06:53.001Z,2.51
2023-02-05T03:07:52.967Z,2.50
2023-02-05T03:08:52.972Z,2.49
2023-02-05T03:09:52.977Z,2.49
2023-02-05T03:10:52.939Z,2.57
2023-02-05T03:11:52.963Z,2.60
2023-02-05T03:12:52.937Z,2.56
2023-02-05T03:13:52.913Z,2.54
2023-02-05T03:14:52.916Z,2.49
2023-02-05T03:15:52.926Z,2.54
2023-02-05T03:16:52.924Z,2.64
2023-02-05T03:17:52.866Z,2.61
2023-02-05T03:18:52.861Z,2.68
2023-02-05T03:19:52.854Z,2.65
2023-02-05T03:20:52.862Z,2.65
2023-02-05T03:21:52.872Z,2.65
2023-02-05T03:22:52.817Z,2.65
2023-02-05T03:23:52.826Z,2.60
2023-02-05T03:24:52.791Z,2.56
2023-02-05T03:25:52.790Z,2.68
2023-02-05T03:26:52.795Z,2.67
2023-02-05T03:27:52.815Z,2.64
2023-02-05T03:28:52.782Z,2.53
2023-02-05T03:29:52.743Z,2.54
2023-02-05T03:30:52.787Z,2.53
2023-02-05T03:31:52.779Z,2.53
2023-02-05T03:32:52.716Z,2.54
2023-02-05T03:33:52.695Z,2.54
2023-02-05T03:34:52.693Z,2.57
2023-02-05T03:35:52.682Z,2.53
2023-02-05T03:36:52.687Z,2.53
2023-02-05T03:37:52.668Z,2.50
2023-02-05T03:38:52.647Z,2.53
2023-02-05T03:39:52.627Z,2.43
2023-02-05T03:40:52.630Z,2.36
2023-02-05T03:41:52.609Z,2.42
2023-02-05T03:42:52.624Z,2.32
2023-02-05T03:43:52.599Z,2.32
2023-02-05T03:44:52.610Z,2.32
2023-02-05T03:45:52.587Z,2.31
2023-02-05T03:46:52.564Z,2.31
2023-02-05T03:47:52.579Z,2.31
2023-02-05T03:48:52.541Z,2.33
2023-02-05T03:49:52.538Z,2.36
2023-02-05T03:50:52.543Z,2.36
2023-02-05T03:51:52.504Z,2.35
2023-02-05T03:52:52.522Z,2.38
2023-02-05T03:53:52.479Z,2.54
2023-02-05T03:54:52.465Z,2.57
2023-02-05T03:55:52.456Z,2.51
2023-02-05T03:56:52.466Z,2.56
2023-02-05T03:57:52.473Z,2.56
2023-02-05T03:58:52.435Z,2.50
2023-02-05T03:59:52.414Z,2.57
2023-02-05T04:00:58.371Z,2.62
2023-02-05T04:01:53.465Z,2.56
2023-02-05T04:02:52.412Z,2.51
2023-02-05T04:03:52.375Z,2.53
2023-02-05T04:04:52.372Z,2.43
2023-02-05T04:05:52.355Z,2.43
2023-02-05T04:06:52.337Z,2.51
2023-02-05T04:07:52.360Z,2.51
2023-02-05T04:08:52.326Z,2.50
2023-02-05T04:09:52.311Z,2.49
2023-02-05T04:10:52.289Z,2.49
2023-02-05T04:11:52.294Z,2.36
2023-02-05T04:12:52.272Z,2.36
2023-02-05T04:13:52.304Z,2.46
2023-02-05T04:14:52.247Z,2.39
2023-02-05T04:15:52.254Z,2.36
2023-02-05T04:16:52.229Z,2.49
2023-02-05T04:17:52.264Z,2.43
2023-02-05T04:18:52.209Z,2.39
2023-02-05T04:19:52.237Z,2.29
2023-02-05T04:20:52.197Z,2.11
2023-02-05T04:21:52.182Z,2.02
2023-02-05T04:22:52.190Z,1.97
2023-02-05T04:23:52.235Z,1.99
2023-02-05T04:24:52.152Z,2.10
2023-02-05T04:25:52.133Z,2.02
2023-02-05T04:26:52.127Z,1.92
2023-02-05T04:27:59.938Z,1.97
2023-02-05T04:28:52.109Z,2.07
2023-02-05T04:29:52.121Z,2.06
2023-02-05T04:30:52.126Z,2.07
2023-02-05T04:31:52.128Z,2.07
2023-02-05T04:32:52.066Z,2.06
2023-02-05T04:33:52.109Z,2.13
2023-02-05T04:34:52.042Z,2.11
2023-02-05T04:35:52.032Z,2.17
2023-02-05T04:36:52.034Z,2.29
2023-02-05T04:37:52.021Z,2.29
2023-02-05T04:38:52.002Z,2.31
2023-02-05T04:39:52.052Z,2.26
2023-02-05T04:40:52.006Z,2.31
2023-02-05T04:41:51.974Z,2.38
2023-02-05T04:42:51.997Z,2.44
2023-02-05T04:43:51.956Z,2.50
2023-02-05T04:44:51.937Z,2.51
2023-02-05T04:45:51.961Z,2.56
2023-02-05T04:46:51.921Z,2.53
2023-02-05T04:47:52.012Z,2.50
2023-02-05T04:48:51.908Z,2.60
2023-02-05T04:49:57.882Z,2.61
2023-02-05T04:50:52.929Z,2.68
2023-02-05T04:51:51.873Z,2.79
2023-02-05T04:52:51.860Z,2.74
2023-02-05T04:53:51.850Z,2.77
2023-02-05T04:54:51.833Z,2.82
2023-02-05T04:55:51.843Z,2.83
2023-02-05T04:56:51.841Z,2.89
2023-02-05T04:57:52.739Z,2.89
2023-02-05T04:58:51.802Z,2.85
2023-02-05T04:59:51.783Z,2.85
2023-02-05T05:00:51.811Z,2.93
2023-02-05T05:01:51.785Z,2.93
2023-02-05T05:02:51.760Z,2.95
2023-02-05T05:03:51.756Z,2.97
2023-02-05T05:04:51.742Z,3.04
2023-02-05T05:05:51.725Z,3.05
2023-02-05T05:06:51.752Z,2.98
2023-02-05T05:07:51.708Z,2.98
2023-02-05T05:08:51.687Z,3.00
2023-02-05T05:09:52.581Z,3.00
2023-02-05T05:10:51.672Z,3.01
2023-02-05T05:11:51.690Z,3.00
2023-02-05T05:12:51.656Z,3.03
2023-02-05T05:13:51.663Z,3.03
2023-02-05T05:14:51.623Z,3.03
2023-02-05T05:15:51.652Z,3.05
2023-02-05T05:16:51.628Z,3.05
2023-02-05T05:17:51.589Z,3.05
2023-02-05T05:18:51.633Z,2.97
2023-02-05T05:19:51.582Z,3.10
2023-02-05T05:20:51.560Z,3.08
2023-02-05T05:21:51.551Z,3.10
2023-02-05T05:22:51.584Z,3.04
2023-02-05T05:23:51.556Z,3.04
2023-02-05T05:24:51.563Z,3.00
2023-02-05T05:25:51.524Z,2.95
2023-02-05T05:26:51.507Z,3.00
2023-02-05T05:27:51.500Z,3.03
2023-02-05T05:28:51.471Z,2.92
2023-02-05T05:29:51.487Z,2.90
2023-02-05T05:30:51.591Z,2.87
2023-02-05T05:31:51.527Z,2.92
2023-02-05T05:32:51.463Z,2.90
2023-02-05T05:33:51.434Z,2.93
2023-02-05T05:34:51.411Z,2.89
2023-02-05T05:35:51.397Z,2.92
2023-02-05T05:36:51.409Z,2.93
2023-02-05T05:37:51.413Z,2.92
2023-02-05T05:38:51.466Z,2.80
2023-02-05T05:39:51.354Z,2.90
2023-02-05T05:40:51.359Z,2.90
2023-02-05T05:41:51.342Z,2.87
2023-02-05T05:42:51.359Z,2.89
2023-02-05T05:43:51.356Z,2.93
2023-02-05T05:44:51.307Z,2.93
2023-02-05T05:45:51.322Z,2.90
2023-02-05T05:46:51.290Z,2.89
2023-02-05T05:47:51.294Z,2.95
2023-02-05T05:48:51.268Z,2.93
2023-02-05T05:49:51.286Z,2.93
2023-02-05T05:50:51.248Z,2.89
2023-02-05T05:51:51.247Z,2.89
2023-02-05T05:52:51.232Z,2.83
2023-02-05T05:53:51.214Z,2.90
2023-02-05T05:54:51.218Z,2.95
2023-02-05T05:55:51.229Z,2.89
2023-02-05T05:56:51.200Z,2.93
2023-02-05T05:57:51.198Z,2.89
2023-02-05T05:58:51.147Z,2.92
2023-02-05T05:59:51.149Z,2.92
2023-02-05T06:00:51.138Z,2.90
2023-02-05T06:01:51.145Z,2.83
2023-02-05T06:02:51.128Z,2.92
2023-02-05T06:03:51.098Z,2.79
2023-02-05T06:04:51.133Z,2.72
2023-02-05T06:05:51.089Z,2.71
2023-02-05T06:06:51.069Z,2.72
2023-02-05T06:07:51.055Z,2.71
2023-02-05T06:08:51.044Z,2.71
2023-02-05T06:09:51.042Z,2.69
2023-02-05T06:10:51.071Z,2.74
2023-02-05T06:11:51.030Z,2.71
2023-02-05T06:12:50.994Z,2.72
2023-02-05T06:13:51.012Z,2.75
2023-02-05T06:14:50.981Z,2.64
2023-02-05T06:15:51.006Z,2.62
2023-02-05T06:16:50.966Z,2.67
2023-02-05T06:17:50.954Z,2.50
2023-02-05T06:18:50.965Z,2.56
2023-02-05T06:19:50.930Z,2.54
2023-02-05T06:20:50.915Z,2.54
2023-02-05T06:21:50.932Z,2.56
2023-02-05T06:22:50.894Z,2.51
2023-02-05T06:23:50.876Z,2.36
2023-02-05T06:24:50.871Z,2.43
2023-02-05T06:25:50.859Z,2.35
2023-02-05T06:26:50.900Z,2.39
2023-02-05T06:27:50.848Z,2.38
2023-02-05T06:28:50.833Z,2.39
2023-02-05T06:29:50.824Z,2.47
2023-02-05T06:30:50.937Z,2.29
2023-02-05T06:31:50.971Z,2.35
2023-02-05T06:32:50.787Z,2.32
2023-02-05T06:33:50.889Z,2.33
2023-02-05T06:34:50.769Z,2.38
2023-02-05T06:35:50.776Z,2.38
2023-02-05T06:36:50.748Z,2.50
2023-02-05T06:37:50.769Z,2.47
2023-02-05T06:38:50.753Z,2.47
2023-02-05T06:39:50.712Z,2.46
2023-02-05T06:40:50.700Z,2.54
2023-02-05T06:41:50.691Z,2.54
2023-02-05T06:42:50.758Z,2.53
2023-02-05T06:43:50.705Z,2.57
2023-02-05T06:44:50.689Z,2.53
2023-02-05T06:45:50.678Z,2.54
2023-02-05T06:46:50.660Z,2.57
2023-02-05T06:47:50.661Z,2.50
2023-02-05T06:48:50.618Z,2.39
2023-02-05T06:49:50.605Z,2.33
2023-02-05T06:50:50.609Z,2.39
2023-02-05T06:51:50.584Z,2.28
2023-02-05T06:52:50.597Z,2.39
2023-02-05T06:53:50.566Z,2.39
2023-02-05T06:54:50.552Z,2.33
2023-02-05T06:55:50.547Z,2.39
2023-02-05T06:56:50.536Z,2.38
2023-02-05T06:57:50.528Z,2.47
2023-02-05T06:58:50.630Z,2.49
2023-02-05T06:59:50.504Z,2.46
2023-02-05T07:00:50.502Z,2.44
2023-02-05T07:01:50.595Z,2.43
2023-02-05T07:02:50.589Z,2.38
2023-02-05T07:03:50.505Z,2.29
2023-02-05T07:04:50.447Z,2.29
2023-02-05T07:05:50.447Z,2.31
2023-02-05T07:06:50.435Z,2.26
2023-02-05T07:07:50.439Z,2.32
2023-02-05T07:08:50.451Z,2.46
2023-02-05T07:09:50.406Z,2.35
2023-02-05T07:10:50.406Z,2.46
2023-02-05T07:11:50.394Z,2.51
2023-02-05T07:12:50.405Z,2.54
2023-02-05T07:13:50.379Z,2.56
2023-02-05T07:14:50.497Z,2.49
2023-02-05T07:15:50.350Z,2.54
2023-02-05T07:16:50.415Z,2.36
2023-02-05T07:17:50.364Z,2.51
2023-02-05T07:18:50.419Z,2.47
2023-02-05T07:19:50.422Z,2.49
2023-02-05T07:20:50.396Z,2.39
2023-02-05T07:21:50.344Z,2.53
2023-02-05T07:22:50.298Z,2.56
2023-02-05T07:23:50.367Z,2.49
2023-02-05T07:24:50.590Z,2.54
2023-02-05T07:25:50.281Z,2.67
2023-02-05T07:26:50.373Z,2.65
2023-02-05T07:27:50.358Z,2.65
2023-02-05T07:28:50.471Z,2.69
2023-02-05T07:29:50.192Z,2.74
2023-02-05T07:30:50.418Z,2.77
2023-02-05T07:31:50.241Z,2.80
2023-02-05T07:32:50.970Z,2.79
2023-02-05T07:33:50.238Z,2.77
2023-02-05T07:34:50.231Z,2.74
2023-02-05T07:35:50.541Z,2.80
2023-02-05T07:36:50.356Z,2.65
2023-02-05T07:37:50.315Z,2.65
2023-02-05T07:38:50.208Z,2.65
2023-02-05T07:39:50.220Z,2.61
2023-02-05T07:40:50.213Z,2.67
2023-02-05T07:41:50.143Z,2.69
2023-02-05T07:42:50.298Z,2.71
2023-02-05T07:43:50.068Z,2.83
2023-02-05T07:44:50.103Z,3.01
2023-02-05T07:45:50.091Z,3.28
2023-02-05T07:46:50.088Z,3.55
2023-02-05T07:47:50.110Z,3.73
2023-02-05T07:48:50.064Z,3.77
2023-02-05T07:49:50.356Z,3.80
2023-02-05T07:50:50.109Z,3.66
2023-02-05T07:51:50.121Z,3.62
2023-02-05T07:52:50.021Z,3.51
2023-02-05T07:53:50.136Z,3.48
2023-02-05T07:54:50.149Z,3.44
2023-02-05T07:55:49.992Z,3.29
2023-02-05T07:56:50.125Z,3.25
2023-02-05T07:57:50.078Z,3.21
2023-02-05T07:58:49.937Z,3.21
2023-02-05T07:59:49.911Z,3.13
2023-02-05T08:00:50.105Z,3.07
2023-02-05T08:01:50.227Z,3.10
2023-02-05T08:02:49.940Z,3.05
2023-02-05T08:03:49.853Z,3.18
2023-02-05T08:04:49.901Z,3.13
2023-02-05T08:05:51.330Z,3.23
2023-02-05T08:06:49.833Z,3.25
2023-02-05T08:07:49.829Z,3.32
2023-02-05T08:08:49.840Z,3.28
2023-02-05T08:09:49.993Z,3.21
2023-02-05T08:10:49.851Z,3.23
2023-02-05T08:11:49.769Z,3.22
2023-02-05T08:12:49.803Z,3.23
2023-02-05T08:13:49.741Z,3.23
2023-02-05T08:14:49.772Z,3.21
2023-02-05T08:15:49.699Z,3.21
2023-02-05T08:16:49.834Z,3.18
2023-02-05T08:17:49.699Z,3.26
2023-02-05T08:18:49.735Z,3.21
2023-02-05T08:19:49.657Z,3.13
2023-02-05T08:20:49.700Z,3.10
2023-02-05T08:21:49.671Z,2.95
2023-02-05T08:22:49.716Z,2.74
2023-02-05T08:23:49.769Z,2.67
2023-02-05T08:24:49.705Z,2.67
2023-02-05T08:25:49.793Z,2.51
2023-02-05T08:26:49.767Z,2.57
2023-02-05T08:27:49.574Z,2.64
2023-02-05T08:28:49.577Z,2.77
2023-02-05T08:29:49.572Z,2.79
2023-02-05T08:30:49.608Z,2.90
2023-02-05T08:31:49.650Z,2.97
2023-02-05T08:32:49.788Z,3.03
2023-02-05T08:33:50.770Z,3.07
2023-02-05T08:34:49.547Z,3.25
2023-02-05T08:35:49.573Z,3.32
2023-02-05T08:36:49.512Z,3.22
2023-02-05T08:37:49.464Z,3.32
2023-02-05T08:38:49.448Z,3.47
2023-02-05T08:39:49.460Z,3.41
2023-02-05T08:40:49.444Z,3.45
2023-02-05T08:41:49.410Z,3.45
2023-02-05T08:42:49.411Z,3.45
2023-02-05T08:43:49.403Z,3.58
2023-02-05T08:44:49.378Z,3.62
2023-02-05T08:45:49.430Z,3.65
2023-02-05T08:46:50.608Z,3.53
2023-02-05T08:47:49.358Z,3.66
2023-02-05T08:48:49.376Z,3.60
2023-02-05T08:49:49.332Z,3.77
2023-02-05T08:50:49.345Z,3.63
2023-02-05T08:51:49.337Z,3.50
2023-02-05T08:52:49.310Z,3.48
2023-02-05T08:53:49.353Z,3.36
2023-02-05T08:54:49.290Z,3.40
2023-02-05T08:55:49.268Z,3.34
2023-02-05T08:56:49.342Z,3.40
2023-02-05T08:57:49.248Z,3.31
2023-02-05T08:58:49.254Z,3.22
2023-02-05T08:59:49.230Z,3.25
2023-02-05T09:00:49.252Z,3.18
2023-02-05T09:01:49.460Z,3.11
2023-02-05T09:02:49.189Z,3.05
2023-02-05T09:03:49.189Z,3.05
2023-02-05T09:04:50.281Z,3.03
2023-02-05T09:05:49.160Z,3.21
2023-02-05T09:06:49.168Z,3.13
2023-02-05T09:07:49.170Z,3.19
2023-02-05T09:08:49.172Z,3.22
2023-02-05T09:09:49.126Z,3.21
2023-02-05T09:10:49.098Z,3.22
2023-02-05T09:11:49.101Z,3.11
2023-02-05T09:12:49.093Z,3.05
2023-02-05T09:13:49.137Z,3.01
2023-02-05T09:14:49.078Z,2.95
2023-02-05T09:15:49.066Z,3.05
2023-02-05T09:16:49.057Z,3.10
2023-02-05T09:17:49.059Z,3.18
2023-02-05T09:18:49.075Z,3.31
2023-02-05T09:19:49.005Z,3.21
2023-02-05T09:20:49.008Z,3.28
2023-02-05T09:21:48.987Z,3.23
2023-02-05T09:22:49.004Z,3.18
2023-02-05T09:23:49.112Z,3.18
2023-02-05T09:24:48.956Z,3.26
2023-02-05T09:25:48.956Z,3.21
2023-02-05T09:26:48.949Z,3.21
2023-02-05T09:27:50.619Z,3.34
2023-02-05T09:28:49.021Z,3.36
2023-02-05T09:29:48.889Z,3.28
2023-02-05T09:30:48.990Z,3.36
2023-02-05T09:31:49.077Z,3.41
2023-02-05T09:32:48.909Z,3.45
2023-02-05T09:33:48.909Z,3.48
2023-02-05T09:34:48.884Z,3.56
2023-02-05T09:35:48.907Z,3.60
2023-02-05T09:36:48.828Z,3.66
2023-02-05T09:37:48.874Z,3.65
2023-02-05T09:38:48.825Z,3.68
2023-02-05T09:40:20.391Z,3.80
2023-02-05T09:40:49.786Z,3.78
2023-02-05T09:41:48.768Z,3.81
2023-02-05T09:42:48.828Z,3.87
2023-02-05T09:43:48.767Z,3.91
2023-02-05T09:44:48.773Z,3.92
2023-02-05T09:45:48.863Z,3.96
2023-02-05T09:46:48.731Z,4.01
2023-02-05T09:47:48.698Z,4.05
2023-02-05T09:48:48.695Z,4.08
2023-02-05T09:49:48.691Z,4.08
2023-02-05T09:50:48.713Z,4.08
2023-02-05T09:51:48.686Z,4.04
2023-02-05T09:52:48.652Z,4.12
2023-02-05T09:53:48.641Z,4.10
2023-02-05T09:54:48.645Z,4.16
2023-02-05T09:55:48.638Z,4.26
2023-02-05T09:56:48.619Z,4.31
2023-02-05T09:57:48.601Z,4.41
2023-02-05T09:58:48.581Z,4.32
2023-02-05T09:59:48.617Z,4.40
2023-02-05T10:00:48.584Z,4.37
2023-02-05T10:01:48.544Z,4.40
2023-02-05T10:02:48.553Z,4.50
2023-02-05T10:03:48.562Z,4.56
2023-02-05T10:04:48.528Z,4.68
2023-02-05T10:05:48.901Z,4.74
2023-02-05T10:06:48.513Z,4.99
2023-02-05T10:07:48.524Z,5.14
2023-02-05T10:08:48.476Z,5.25
2023-02-05T10:09:48.488Z,5.32
2023-02-05T10:10:48.494Z,5.41
2023-02-05T10:11:48.441Z,5.41
2023-02-05T10:12:48.424Z,5.65
2023-02-05T10:13:48.440Z,5.75
2023-02-05T10:14:49.262Z,5.89
2023-02-05T10:15:48.460Z,5.93
2023-02-05T10:16:48.456Z,5.93
2023-02-05T10:17:48.378Z,6.17
2023-02-05T10:18:48.394Z,6.26
2023-02-05T10:19:48.371Z,6.42
2023-02-05T10:20:48.340Z,6.52
2023-02-05T10:21:48.336Z,6.54
2023-02-05T10:22:48.333Z,6.74
2023-02-05T10:23:48.357Z,6.72
2023-02-05T10:24:48.296Z,6.75
2023-02-05T10:25:48.339Z,6.75
2023-02-05T10:26:48.375Z,6.57
2023-02-05T10:27:48.303Z,6.16
2023-02-05T10:28:48.530Z,5.83
2023-02-05T10:29:48.336Z,5.68
2023-02-05T10:30:48.368Z,5.66
2023-02-05T10:31:48.306Z,5.61
2023-02-05T10:32:48.233Z,5.64
2023-02-05T10:33:48.192Z,5.46
2023-02-05T10:34:48.219Z,5.39
2023-02-05T10:35:48.186Z,5.35
2023-02-05T10:36:49.223Z,5.38
2023-02-05T10:37:48.188Z,5.53
2023-02-05T10:38:48.157Z,5.54
2023-02-05T10:39:48.159Z,5.57
2023-02-05T10:40:48.139Z,5.56
2023-02-05T10:41:48.137Z,5.59
2023-02-05T10:42:48.113Z,5.54
2023-02-05T10:43:48.107Z,5.61
2023-02-05T10:44:48.098Z,5.66
2023-02-05T10:45:48.142Z,5.69
2023-02-05T10:46:48.067Z,5.57
2023-02-05T10:47:48.054Z,5.53
2023-02-05T10:48:48.048Z,5.41
2023-02-05T10:49:48.126Z,5.44
2023-02-05T10:50:48.040Z,5.23
2023-02-05T10:51:48.010Z,5.32
2023-02-05T10:52:48.012Z,5.33
2023-02-05T10:53:47.991Z,5.30
2023-02-05T10:54:48.035Z,5.36
2023-02-05T10:55:47.990Z,5.36
2023-02-05T10:56:48.006Z,5.47
2023-02-05T10:57:47.943Z,5.38
2023-02-05T10:58:47.991Z,5.26
2023-02-05T10:59:47.931Z,5.23
2023-02-05T11:00:47.919Z,5.26
2023-02-05T11:01:47.994Z,5.26
2023-02-05T11:02:48.077Z,5.26
2023-02-05T11:03:47.947Z,5.21
2023-02-05T11:04:47.875Z,5.36
2023-02-05T11:05:47.876Z,5.41
2023-02-05T11:06:47.855Z,5.18
2023-02-05T11:07:47.863Z,5.18
2023-02-05T11:08:47.838Z,5.28
2023-02-05T11:09:47.825Z,5.23
2023-02-05T11:10:47.851Z,5.33
2023-02-05T11:11:47.792Z,5.43
2023-02-05T11:12:56.418Z,5.35
2023-02-05T11:13:47.778Z,5.47
2023-02-05T11:14:47.772Z,5.38
2023-02-05T11:15:47.757Z,5.14
2023-02-05T11:16:47.731Z,5.15
2023-02-05T11:17:47.727Z,5.15
2023-02-05T11:18:47.718Z,5.10
2023-02-05T11:19:47.697Z,5.10
2023-02-05T11:20:47.689Z,5.12
2023-02-05T11:21:47.691Z,4.90
2023-02-05T11:22:47.682Z,4.75
2023-02-05T11:23:47.653Z,4.77
2023-02-05T11:24:47.649Z,4.70
2023-02-05T11:25:47.646Z,4.75
2023-02-05T11:26:47.617Z,4.97
2023-02-05T11:27:47.646Z,4.99
2023-02-05T11:28:47.629Z,5.07
2023-02-05T11:29:47.603Z,5.21
2023-02-05T11:30:51.124Z,5.29
2023-02-05T11:31:47.599Z,5.41
2023-02-05T11:32:47.552Z,5.43
2023-02-05T11:33:47.557Z,5.35
2023-02-05T11:34:47.542Z,5.17
2023-02-05T11:35:47.532Z,4.68
2023-02-05T11:36:47.509Z,4.55
2023-02-05T11:37:47.506Z,4.59
2023-02-05T11:38:47.523Z,4.74
2023-02-05T11:39:47.487Z,4.60
2023-02-05T11:40:47.476Z,4.30
2023-02-05T11:41:47.515Z,4.32
2023-02-05T11:42:47.453Z,4.30
2023-02-05T11:43:47.460Z,4.26
2023-02-05T11:44:47.430Z,4.37
2023-02-05T11:45:47.417Z,4.32
2023-02-05T11:46:47.479Z,4.35
2023-02-05T11:47:47.396Z,4.58
2023-02-05T11:48:47.385Z,4.70
2023-02-05T11:49:47.371Z,4.75
2023-02-05T11:50:47.366Z,4.92
2023-02-05T11:51:47.421Z,5.05
2023-02-05T11:52:47.345Z,5.04
2023-02-05T11:53:47.330Z,5.14
2023-02-05T11:54:47.317Z,5.21
2023-02-05T11:55:47.323Z,5.44
2023-02-05T11:56:47.309Z,5.35
2023-02-05T11:57:47.292Z,5.47
2023-02-05T11:58:47.280Z,5.59
2023-02-05T11:59:47.289Z,5.54
2023-02-05T12:00:47.254Z,5.64
2023-02-05T12:01:47.377Z,5.66
2023-02-05T12:02:47.286Z,5.66
2023-02-05T12:03:47.260Z,5.21
2023-02-05T12:04:47.224Z,5.12
2023-02-05T12:05:47.205Z,5.02
2023-02-05T12:06:47.199Z,5.02
2023-02-05T12:07:47.231Z,4.99
2023-02-05T12:08:47.193Z,4.71
2023-02-05T12:09:47.155Z,4.73
2023-02-05T12:10:47.176Z,4.73
2023-02-05T12:11:47.142Z,4.73
2023-02-05T12:12:47.159Z,4.78
2023-02-05T12:13:47.136Z,4.78
2023-02-05T12:14:47.114Z,4.96
2023-02-05T12:15:47.102Z,4.94
2023-02-05T12:16:47.089Z,5.05
2023-02-05T12:17:47.083Z,5.11
2023-02-05T12:18:47.107Z,5.25
2023-02-05T12:19:47.066Z,5.33
2023-02-05T12:20:47.039Z,5.47
2023-02-05T12:21:47.037Z,5.57
2023-02-05T12:22:47.047Z,5.14
2023-02-05T12:23:47.031Z,4.86
2023-02-05T12:24:47.010Z,4.75
2023-02-05T12:25:46.987Z,4.78
2023-02-05T12:26:46.987Z,4.89
2023-02-05T12:27:47.014Z,4.94
2023-02-05T12:28:46.963Z,5.08
2023-02-05T12:29:46.942Z,5.11
2023-02-05T12:30:46.964Z,5.04
2023-02-05T12:31:47.043Z,4.94
2023-02-05T12:32:46.938Z,4.75
2023-02-05T12:33:46.892Z,4.67
2023-02-05T12:34:46.910Z,4.66
2023-02-05T12:35:46.906Z,4.74
2023-02-05T12:36:46.861Z,4.84
2023-02-05T12:37:46.896Z,4.86
2023-02-05T12:38:46.873Z,4.94
2023-02-05T12:39:46.844Z,5.07
2023-02-05T12:40:46.835Z,5.10
2023-02-05T12:41:46.816Z,5.23
2023-02-05T12:42:46.864Z,5.11
2023-02-05T12:43:46.844Z,5.10
2023-02-05T12:44:46.795Z,5.05
2023-02-05T12:45:46.786Z,5.07
2023-02-05T12:46:46.766Z,5.07
2023-02-05T12:47:46.789Z,5.11
2023-02-05T12:48:46.757Z,5.20
2023-02-05T12:49:46.753Z,5.17
2023-02-05T12:50:46.807Z,5.18
2023-02-05T12:51:46.718Z,5.21
2023-02-05T12:52:46.730Z,5.23
2023-02-05T12:53:46.683Z,5.32
2023-02-05T12:54:46.681Z,5.38
2023-02-05T12:55:46.662Z,5.53
2023-02-05T12:56:46.639Z,5.66
2023-02-05T12:57:46.661Z,5.66
2023-02-05T12:58:46.622Z,5.72
2023-02-05T12:59:46.630Z,5.87
2023-02-05T13:00:46.651Z,5.91
2023-02-05T13:01:46.636Z,5.99
2023-02-05T13:02:46.580Z,5.99
2023-02-05T13:03:46.693Z,6.09
2023-02-05T13:04:46.568Z,6.24
2023-02-05T13:05:46.557Z,6.30
2023-02-05T13:06:46.561Z,6.31
2023-02-05T13:07:46.525Z,6.24
2023-02-05T13:08:46.554Z,6.36
2023-02-05T13:09:46.549Z,6.36
2023-02-05T13:10:46.497Z,6.41
2023-02-05T13:11:46.492Z,6.41
2023-02-05T13:12:46.478Z,6.24
2023-02-05T13:13:46.460Z,6.19
2023-02-05T13:14:46.477Z,6.09
2023-02-05T13:15:46.448Z,6.11
2023-02-05T13:16:46.441Z,6.19
2023-02-05T13:17:46.426Z,5.98
2023-02-05T13:18:46.415Z,5.94